createdAt,value
2023-04-02T00:01:49.800Z,99371.41
2023-04-02T00:04:34.277Z,99377.13
2023-04-02T00:07:30.489Z,99386.25
2023-04-02T00:09:59.220Z,99381.13
2023-04-02T00:12:29.164Z,99379.84
2023-04-02T00:14:58.259Z,99383.38
2023-04-02T00:17:27.017Z,99383.38
2023-04-02T00:20:00.110Z,99384.81
2023-04-02T00:22:31.771Z,99341.47
2023-04-02T00:25:04.287Z,99385.59
2023-04-02T00:27:34.180Z,99386.66
2023-04-02T00:30:04.337Z,99383.34
2023-04-02T00:32:34.505Z,99388.41
2023-04-02T00:35:03.408Z,99381.94
2023-04-02T00:37:39.212Z,99383.25
2023-04-02T00:40:12.053Z,99364.50
2023-04-02T00:42:42.843Z,99398.00
2023-04-02T00:45:21.938Z,99397.06
2023-04-02T00:47:50.360Z,99391.06
2023-04-02T00:50:29.219Z,99397.88
2023-04-02T00:52:59.323Z,99396.13
2023-04-02T00:55:36.690Z,99379.72
2023-04-02T00:58:14.559Z,99392.69
2023-04-02T01:00:50.125Z,99388.94
2023-04-02T01:03:37.127Z,99397.16
2023-04-02T01:06:11.425Z,99382.78
2023-04-02T01:08:55.508Z,99348.13
2023-04-02T01:11:37.360Z,99391.44
2023-04-02T01:14:16.489Z,99388.47
2023-04-02T01:16:54.195Z,99383.50
2023-04-02T01:20:01.066Z,99404.28
2023-04-02T01:22:35.341Z,99373.28
2023-04-02T01:25:04.727Z,99382.53
2023-04-02T01:27:40.952Z,99401.22
2023-04-02T01:30:14.676Z,99403.34
2023-04-02T01:32:44.735Z,99400.75
2023-04-02T01:35:13.477Z,99382.13
2023-04-02T01:37:49.795Z,99386.59
2023-04-02T01:40:32.998Z,99386.72
2023-04-02T01:43:12.561Z,99383.78
2023-04-02T01:45:42.245Z,99392.25
2023-04-02T01:48:17.621Z,99396.63
2023-04-02T01:50:48.498Z,99385.06
2023-04-02T01:53:19.077Z,99400.31
2023-04-02T01:55:49.930Z,99394.13
2023-04-02T01:58:21.032Z,99405.09
2023-04-02T02:00:54.800Z,99409.94
2023-04-02T02:03:23.232Z,99402.88
2023-04-02T02:05:52.175Z,99404.97
2023-04-02T02:08:33.045Z,99415.13
2023-04-02T02:11:01.304Z,99405.81
2023-04-02T02:13:29.460Z,99379.16
2023-04-02T02:16:01.086Z,99403.47
2023-04-02T02:18:30.208Z,99407.00
2023-04-02T02:21:00.278Z,99398.41
2023-04-02T02:23:31.262Z,99407.56
2023-04-02T02:26:00.175Z,99410.38
2023-04-02T02:28:32.699Z,99411.44
2023-04-02T02:31:05.147Z,99402.00
2023-04-02T02:33:38.970Z,99414.75
2023-04-02T02:36:14.545Z,99413.63
2023-04-02T02:38:54.378Z,99416.00
2023-04-02T02:41:29.728Z,99421.44
2023-04-02T02:44:03.634Z,99421.81
2023-04-02T02:46:34.898Z,99426.38
2023-04-02T02:49:05.670Z,99433.69
2023-04-02T02:51:43.577Z,99429.66
2023-04-02T02:54:13.444Z,99430.16
2023-04-02T02:56:47.580Z,99425.34
2023-04-02T02:59:17.110Z,99425.94
2023-04-02T03:01:48.547Z,99440.06
2023-04-02T03:04:22.902Z,99424.88
2023-04-02T03:06:57.199Z,99432.75
2023-04-02T03:09:32.670Z,99437.09
2023-04-02T03:12:08.744Z,99451.53
2023-04-02T03:14:43.690Z,99444.63
2023-04-02T03:17:21.633Z,99443.56
2023-04-02T03:19:55.155Z,99445.47
2023-04-02T03:22:28.536Z,99447.50
2023-04-02T03:25:02.765Z,99450.22
2023-04-02T03:27:34.110Z,99446.34
2023-04-02T03:30:15.668Z,99453.59
2023-04-02T03:32:48.316Z,99459.03
2023-04-02T03:35:24.287Z,99456.34
2023-04-02T03:38:00.147Z,99459.75
2023-04-02T03:40:33.200Z,99463.22
2023-04-02T03:43:06.680Z,99464.69
2023-04-02T03:45:39.916Z,99470.31
2023-04-02T03:48:15.271Z,99475.59
2023-04-02T03:50:49.431Z,99480.00
2023-04-02T03:53:17.618Z,99480.94
2023-04-02T03:55:46.575Z,99467.16
2023-04-02T03:58:22.168Z,99478.69
2023-04-02T04:00:55.860Z,99472.94
2023-04-02T04:03:31.381Z,99480.25
2023-04-02T04:06:03.108Z,99492.81
2023-04-02T04:08:38.197Z,99490.69
2023-04-02T04:11:12.086Z,99494.38
2023-04-02T04:13:46.062Z,99482.00
2023-04-02T04:16:20.907Z,99491.22
2023-04-02T04:18:57.557Z,99485.91
2023-04-02T04:21:31.391Z,99492.19
2023-04-02T04:24:05.177Z,99496.03
2023-04-02T04:26:40.774Z,99497.56
2023-04-02T04:29:19.391Z,99492.25
2023-04-02T04:31:49.812Z,99509.88
2023-04-02T04:34:25.624Z,99524.25
2023-04-02T04:37:02.166Z,99517.53
2023-04-02T04:39:41.358Z,99519.31
2023-04-02T04:42:19.000Z,99505.97
2023-04-02T04:44:53.120Z,99512.72
2023-04-02T04:47:22.580Z,99523.81
2023-04-02T04:49:57.811Z,99530.47
2023-04-02T04:52:28.341Z,99527.78
2023-04-02T04:54:57.089Z,99533.25
2023-04-02T04:57:33.132Z,99530.56
2023-04-02T05:00:09.508Z,99532.00
2023-04-02T05:02:42.573Z,99527.50
2023-04-02T05:05:22.171Z,99541.09
2023-04-02T05:07:54.651Z,99542.84
2023-04-02T05:10:31.942Z,99550.75
2023-04-02T05:13:06.873Z,99552.91
2023-04-02T05:15:40.196Z,99577.19
2023-04-02T05:18:19.492Z,99583.13
2023-04-02T05:20:53.783Z,99579.03
2023-04-02T05:23:28.309Z,99591.94
2023-04-02T05:26:04.624Z,99594.53
2023-04-02T05:28:40.177Z,99598.34
2023-04-02T05:31:12.721Z,99596.97
2023-04-02T05:33:41.379Z,99594.13
2023-04-02T05:36:13.094Z,99603.34
2023-04-02T05:38:47.773Z,99587.06
2023-04-02T05:41:24.683Z,99594.75
2023-04-02T05:44:00.173Z,99588.94
2023-04-02T05:46:33.741Z,99607.03
2023-04-02T05:49:02.734Z,99614.94
2023-04-02T05:51:41.253Z,99613.50
2023-04-02T05:54:23.348Z,99619.19
2023-04-02T05:56:56.357Z,99615.75
2023-04-02T05:59:30.768Z,99612.56
2023-04-02T06:02:03.990Z,99616.59
2023-04-02T06:04:37.690Z,99621.56
2023-04-02T06:07:12.565Z,99615.53
2023-04-02T06:09:45.113Z,99633.03
2023-04-02T06:12:25.037Z,99623.09
2023-04-02T06:14:53.924Z,99590.38
2023-04-02T06:17:22.602Z,99633.13
2023-04-02T06:19:52.264Z,99603.81
2023-04-02T06:22:28.648Z,99629.59
2023-04-02T06:25:01.753Z,99647.31
2023-04-02T06:27:30.855Z,99639.50
2023-04-02T06:30:16.494Z,99652.75
2023-04-02T06:32:44.952Z,99652.28
2023-04-02T06:35:14.122Z,99653.09
2023-04-02T06:37:47.313Z,99655.81
2023-04-02T06:40:34.799Z,99660.66
2023-04-02T06:43:08.348Z,99671.41
2023-04-02T06:45:43.006Z,99665.25
2023-04-02T06:48:17.320Z,99669.84
2023-04-02T06:50:49.187Z,99666.50
2023-04-02T06:53:23.161Z,99670.97
2023-04-02T06:55:54.778Z,99666.88
2023-04-02T06:58:22.877Z,99682.22
2023-04-02T07:00:51.905Z,99692.03
2023-04-02T07:03:24.802Z,99685.75
2023-04-02T07:05:52.954Z,99684.81
2023-04-02T07:08:23.131Z,99685.75
2023-04-02T07:10:52.344Z,99692.31
2023-04-02T07:13:22.240Z,99700.97
2023-04-02T07:15:52.666Z,99704.69
2023-04-02T07:18:25.889Z,99696.88
2023-04-02T07:20:54.730Z,99696.56
2023-04-02T07:23:24.790Z,99690.97
2023-04-02T07:25:54.625Z,99696.88
2023-04-02T07:28:23.161Z,99703.38
2023-04-02T07:30:52.102Z,99708.53
2023-04-02T07:33:23.252Z,99708.16
2023-04-02T07:35:52.431Z,99693.94
2023-04-02T07:38:20.790Z,99715.78
2023-04-02T07:40:50.498Z,99705.78
2023-04-02T07:43:18.489Z,99707.59
2023-04-02T07:45:46.507Z,99712.28
2023-04-02T07:48:15.694Z,99707.34
2023-04-02T07:50:43.722Z,99721.41
2023-04-02T07:53:28.084Z,99717.88
2023-04-02T07:55:57.269Z,99719.66
2023-04-02T07:58:25.701Z,99715.81
2023-04-02T08:00:53.744Z,99701.63
2023-04-02T08:03:22.033Z,99716.44
2023-04-02T08:05:54.197Z,99723.09
2023-04-02T08:08:22.583Z,99723.91
2023-04-02T08:10:51.262Z,99724.88
2023-04-02T08:13:20.653Z,99718.00
2023-04-02T08:15:48.552Z,99725.19
2023-04-02T08:18:19.539Z,99730.41
2023-04-02T08:20:47.498Z,99727.13
2023-04-02T08:23:18.104Z,99731.97
2023-04-02T08:25:46.254Z,99728.66
2023-04-02T08:28:14.789Z,99737.44
2023-04-02T08:30:44.636Z,99737.31
2023-04-02T08:33:12.806Z,99734.72
2023-04-02T08:35:40.786Z,99738.28
2023-04-02T08:38:09.862Z,99743.09
2023-04-02T08:40:40.040Z,99743.75
2023-04-02T08:43:47.101Z,99743.22
2023-04-02T08:46:23.521Z,99746.22
2023-04-02T08:48:56.976Z,99736.72
2023-04-02T08:51:27.265Z,99736.88
2023-04-02T08:53:59.237Z,99728.22
2023-04-02T08:56:33.257Z,99738.00
2023-04-02T08:59:03.989Z,99745.91
2023-04-02T09:01:44.484Z,99751.13
2023-04-02T09:04:16.643Z,99744.53
2023-04-02T09:06:45.083Z,99758.50
2023-04-02T09:09:14.977Z,99758.19
2023-04-02T09:11:51.879Z,99763.16
2023-04-02T09:14:22.376Z,99756.03
2023-04-02T09:16:54.922Z,99750.25
2023-04-02T09:19:24.618Z,99748.78
2023-04-02T09:22:06.089Z,99747.91
2023-04-02T09:24:34.333Z,99762.56
2023-04-02T09:27:02.371Z,99761.00
2023-04-02T09:29:41.520Z,99756.72
2023-04-02T09:32:35.898Z,99765.97
2023-04-02T09:35:24.442Z,99763.75
2023-04-02T09:38:18.592Z,99769.09
2023-04-02T09:40:51.932Z,99773.25
2023-04-02T09:43:22.289Z,99776.19
2023-04-02T09:46:01.702Z,99764.34
2023-04-02T09:48:33.691Z,99779.63
2023-04-02T09:51:13.502Z,99769.06
2023-04-02T09:53:42.992Z,99769.06
2023-04-02T09:56:21.872Z,99778.72
2023-04-02T09:59:04.310Z,99781.44
2023-04-02T10:01:34.676Z,99779.09
2023-04-02T10:04:06.761Z,99779.69
2023-04-02T10:06:35.921Z,99782.00
2023-04-02T10:09:27.469Z,99788.78
2023-04-02T10:11:57.011Z,99786.03
2023-04-02T10:14:29.831Z,99775.53
2023-04-02T10:17:00.845Z,99774.34
2023-04-02T10:19:35.265Z,99772.38
2023-04-02T10:22:10.428Z,99785.66
2023-04-02T10:24:38.424Z,99797.50
2023-04-02T10:27:18.327Z,99785.56
2023-04-02T10:30:07.179Z,99791.97
2023-04-02T10:32:42.095Z,99789.69
2023-04-02T10:35:20.858Z,99798.88
2023-04-02T10:38:20.055Z,99805.78
2023-04-02T10:40:55.851Z,99778.91
2023-04-02T10:43:57.845Z,99787.09
2023-04-02T10:46:32.948Z,99771.91
2023-04-02T10:49:13.015Z,99787.63
2023-04-02T10:51:46.261Z,99780.59
2023-04-02T10:54:40.088Z,99770.19
2023-04-02T10:57:13.653Z,99778.72
2023-04-02T10:59:44.712Z,99786.38
2023-04-02T11:02:32.025Z,99780.91
2023-04-02T11:05:06.568Z,99774.69
2023-04-02T11:07:47.243Z,99773.75
2023-04-02T11:10:19.848Z,99779.00
2023-04-02T11:12:54.468Z,99783.28
2023-04-02T11:15:23.114Z,99762.25
2023-04-02T11:17:51.748Z,99774.59
2023-04-02T11:20:59.335Z,99772.63
2023-04-02T11:23:34.642Z,99773.16
2023-04-02T11:26:37.530Z,99768.81
2023-04-02T11:29:16.390Z,99770.25
2023-04-02T11:31:46.002Z,99771.25
2023-04-02T11:34:16.674Z,99762.09
2023-04-02T11:37:09.065Z,99772.63
2023-04-02T11:39:53.627Z,99765.25
2023-04-02T11:42:30.178Z,99735.13
2023-04-02T11:45:02.076Z,99753.88
2023-04-02T11:47:31.101Z,99747.44
2023-04-02T11:50:05.644Z,99753.38
2023-04-02T11:52:53.233Z,99755.47
2023-04-02T11:55:27.438Z,99755.38
2023-04-02T11:58:33.874Z,99762.69
2023-04-02T12:01:25.938Z,99718.59
2023-04-02T12:04:26.000Z,99747.28
2023-04-02T12:07:06.488Z,99747.16
2023-04-02T12:09:46.102Z,99752.00
2023-04-02T12:12:26.740Z,99755.56
2023-04-02T12:14:57.277Z,99737.97
2023-04-02T12:17:32.047Z,99735.09
2023-04-02T12:20:05.888Z,99728.44
2023-04-02T12:22:36.200Z,99733.50
2023-04-02T12:25:08.878Z,99723.94
2023-04-02T12:27:38.579Z,99705.78
2023-04-02T12:30:16.142Z,99720.63
2023-04-02T12:32:44.307Z,99720.84
2023-04-02T12:35:29.823Z,99734.44
2023-04-02T12:37:58.509Z,99721.66
2023-04-02T12:40:27.324Z,99733.53
2023-04-02T12:42:56.885Z,99724.03
2023-04-02T12:45:29.385Z,99732.72
2023-04-02T12:47:59.183Z,99722.94
2023-04-02T12:50:27.811Z,99725.31
2023-04-02T12:52:59.106Z,99726.94
2023-04-02T12:55:28.343Z,99707.59
2023-04-02T12:57:59.752Z,99717.56
2023-04-02T13:00:34.155Z,99714.72
2023-04-02T13:03:21.955Z,99714.53
2023-04-02T13:05:54.571Z,99730.16
2023-04-02T13:08:27.335Z,99715.94
2023-04-02T13:10:58.021Z,99711.69
2023-04-02T13:13:44.022Z,99724.06
2023-04-02T13:16:34.134Z,99725.06
2023-04-02T13:19:21.933Z,99725.13
2023-04-02T13:21:50.539Z,99723.84
2023-04-02T13:24:19.551Z,99724.38
2023-04-02T13:26:50.115Z,99722.84
2023-04-02T13:29:33.176Z,99719.81
2023-04-02T13:32:02.991Z,99726.44
2023-04-02T13:34:31.442Z,99725.19
2023-04-02T13:36:59.869Z,99727.22
2023-04-02T13:39:30.393Z,99708.13
2023-04-02T13:42:00.239Z,99712.41
2023-04-02T13:44:31.944Z,99716.69
2023-04-02T13:47:00.851Z,99676.56
2023-04-02T13:49:29.793Z,99708.16
2023-04-02T13:52:00.852Z,99707.69
2023-04-02T13:54:35.087Z,99694.34
2023-04-02T13:57:03.313Z,99705.19
2023-04-02T13:59:32.836Z,99689.09
2023-04-02T14:02:06.609Z,99688.59
2023-04-02T14:04:36.660Z,99703.25
2023-04-02T14:07:20.266Z,99702.88
2023-04-02T14:10:01.896Z,99699.63
2023-04-02T14:12:42.776Z,99668.84
2023-04-02T14:15:26.054Z,99707.22
2023-04-02T14:18:24.339Z,99698.28
2023-04-02T14:21:02.584Z,99681.53
2023-04-02T14:23:43.770Z,99707.84
2023-04-02T14:26:20.128Z,99700.91
2023-04-02T14:28:57.830Z,99703.72
2023-04-02T14:31:35.304Z,99696.97
2023-04-02T14:34:10.097Z,99688.44
2023-04-02T14:36:51.271Z,99694.50
2023-04-02T14:39:27.399Z,99680.22
2023-04-02T14:42:00.136Z,99684.47
2023-04-02T14:44:34.390Z,99695.19
2023-04-02T14:47:17.596Z,99687.78
2023-04-02T14:49:49.843Z,99687.13
2023-04-02T14:52:22.830Z,99692.22
2023-04-02T14:54:53.733Z,99693.38
2023-04-02T14:57:24.512Z,99702.91
2023-04-02T15:00:01.514Z,99701.28
2023-04-02T15:02:40.405Z,99694.34
2023-04-02T15:05:18.632Z,99679.88
2023-04-02T15:07:51.989Z,99663.44
2023-04-02T15:10:25.508Z,99652.94
2023-04-02T15:12:54.716Z,99709.63
2023-04-02T15:15:39.349Z,99700.09
2023-04-02T15:18:14.126Z,99708.31
2023-04-02T15:20:52.468Z,99711.44
2023-04-02T15:23:29.301Z,99711.91
2023-04-02T15:26:07.329Z,99729.16
2023-04-02T15:28:42.054Z,99725.84
2023-04-02T15:31:14.515Z,99721.78
2023-04-02T15:33:46.955Z,99733.59
2023-04-02T15:36:38.424Z,99732.94
2023-04-02T15:39:21.787Z,99737.47
2023-04-02T15:42:05.687Z,99742.63
2023-04-02T15:44:35.753Z,99741.88
2023-04-02T15:47:11.517Z,99743.72
2023-04-02T15:49:44.514Z,99739.16
2023-04-02T15:52:19.565Z,99748.00
2023-04-02T15:55:00.245Z,99733.44
2023-04-02T15:57:44.039Z,99742.47
2023-04-02T16:00:26.952Z,99749.06
2023-04-02T16:03:23.116Z,99745.38
2023-04-02T16:06:10.749Z,99760.06
2023-04-02T16:08:48.113Z,99762.00
2023-04-02T16:11:16.827Z,99760.41
2023-04-02T16:13:45.156Z,99768.94
2023-04-02T16:16:19.002Z,99763.00
2023-04-02T16:18:56.839Z,99780.94
2023-04-02T16:21:30.441Z,99773.41
2023-04-02T16:23:58.428Z,99772.34
2023-04-02T16:26:52.485Z,99791.28
2023-04-02T16:29:55.034Z,99787.56
2023-04-02T16:32:49.344Z,99786.72
2023-04-02T16:38:13.950Z,99793.03
2023-04-02T16:41:04.686Z,99789.59
2023-04-02T16:43:47.122Z,99799.66
2023-04-02T16:46:38.116Z,99793.56
2023-04-02T16:49:27.676Z,99798.97
2023-04-02T16:52:08.086Z,99810.91
2023-04-02T16:54:46.337Z,99816.03
2023-04-02T16:57:25.286Z,99820.63
2023-04-02T17:00:02.170Z,99820.25
2023-04-02T17:02:43.521Z,99824.78
2023-04-02T17:05:30.657Z,99828.19
2023-04-02T17:08:09.509Z,99830.78
2023-04-02T17:10:49.816Z,99828.94
2023-04-02T17:13:25.200Z,99829.47
2023-04-02T17:16:02.824Z,99822.97
2023-04-02T17:18:32.155Z,99832.63
2023-04-02T17:21:05.206Z,99832.69
2023-04-02T17:23:55.300Z,99828.56
2023-04-02T17:26:28.469Z,99836.31
2023-04-02T17:28:58.747Z,99841.41
2023-04-02T17:31:34.285Z,99834.91
2023-04-02T17:34:10.865Z,99827.03
2023-04-02T17:36:47.385Z,99829.94
2023-04-02T17:39:22.230Z,99834.56
2023-04-02T17:41:58.179Z,99834.53
2023-04-02T17:44:38.046Z,99850.16
2023-04-02T17:47:13.365Z,99845.13
2023-04-02T17:49:49.722Z,99844.94
2023-04-02T17:52:22.512Z,99849.31
2023-04-02T17:54:59.240Z,99847.91
2023-04-02T17:57:41.722Z,99847.72
2023-04-02T18:00:23.932Z,99852.00
2023-04-02T18:03:10.728Z,99847.78
2023-04-02T18:05:45.486Z,99860.59
2023-04-02T18:08:25.629Z,99861.56
2023-04-02T18:11:05.975Z,99869.41
2023-04-02T18:13:37.024Z,99845.03
2023-04-02T18:16:43.330Z,99880.53
2023-04-02T18:19:18.305Z,99884.31
2023-04-02T18:21:55.685Z,99884.81
2023-04-02T18:24:42.728Z,99887.19
2023-04-02T18:27:34.381Z,99897.34
2023-04-02T18:30:16.555Z,99891.41
2023-04-02T18:33:05.022Z,99899.22
2023-04-02T18:35:34.902Z,99899.19
2023-04-02T18:38:16.920Z,99913.47
2023-04-02T18:41:02.659Z,99906.94
2023-04-02T18:43:43.085Z,99900.53
2023-04-02T18:46:23.302Z,99921.47
2023-04-02T18:48:57.928Z,99908.53
2023-04-02T18:51:27.681Z,99906.25
2023-04-02T18:54:04.130Z,99916.91
2023-04-02T18:56:33.236Z,99923.06
2023-04-02T18:59:14.624Z,99926.22
2023-04-02T19:01:48.065Z,99917.84
2023-04-02T19:04:21.526Z,99913.50
2023-04-02T19:06:54.034Z,99913.41
2023-04-02T19:09:27.297Z,99922.72
2023-04-02T19:11:55.377Z,99924.66
2023-04-02T19:14:24.320Z,99924.88
2023-04-02T19:17:03.473Z,99927.47
2023-04-02T19:19:41.189Z,99916.22
2023-04-02T19:22:18.011Z,99921.31
2023-04-02T19:25:09.771Z,99929.66
2023-04-02T19:27:51.350Z,99924.78
2023-04-02T19:30:42.385Z,99931.13
2023-04-02T19:33:26.130Z,99929.84
2023-04-02T19:35:58.923Z,99932.91
2023-04-02T19:38:47.722Z,99926.69
2023-04-02T19:41:27.403Z,99933.03
2023-04-02T19:43:56.828Z,99939.44
2023-04-02T19:46:27.340Z,99937.78
2023-04-02T19:49:06.008Z,99937.16
2023-04-02T19:51:35.017Z,99935.41
2023-04-02T19:54:03.064Z,99931.50
2023-04-02T19:56:31.260Z,99942.81
2023-04-02T19:59:02.353Z,99943.75
2023-04-02T20:01:33.595Z,99932.97
2023-04-02T20:04:03.814Z,99943.66
2023-04-02T20:06:32.090Z,99944.50
2023-04-02T20:09:00.302Z,99945.44
2023-04-02T20:11:29.049Z,99940.03
2023-04-02T20:13:56.956Z,99935.16
2023-04-02T20:16:24.889Z,99937.72
2023-04-02T20:18:52.919Z,99941.13
2023-04-02T20:21:22.589Z,99943.28
2023-04-02T20:23:54.083Z,99938.31
2023-04-02T20:26:22.822Z,99930.19
2023-04-02T20:28:51.020Z,99939.56
2023-04-02T20:31:19.907Z,99925.25
2023-04-02T20:33:48.038Z,99917.88
2023-04-02T20:36:17.566Z,99944.13
2023-04-02T20:38:46.934Z,99939.13
2023-04-02T20:41:16.148Z,99944.00
2023-04-02T20:43:44.135Z,99952.47
2023-04-02T20:46:13.640Z,99951.00
2023-04-02T20:48:41.963Z,99942.34
2023-04-02T20:51:11.028Z,99958.31
2023-04-02T20:53:39.206Z,99950.22
2023-04-02T20:56:11.117Z,99928.91
2023-04-02T20:58:40.878Z,99960.16
2023-04-02T21:01:11.707Z,99942.13
2023-04-02T21:03:40.718Z,99925.63
2023-04-02T21:06:14.104Z,99950.38
2023-04-02T21:08:42.085Z,99964.22
2023-04-02T21:11:12.171Z,99949.56
2023-04-02T21:13:42.562Z,99953.44
2023-04-02T21:16:16.201Z,99955.50
2023-04-02T21:18:44.874Z,99970.47
2023-04-02T21:21:14.503Z,99961.88
2023-04-02T21:23:43.634Z,99959.44
2023-04-02T21:26:15.481Z,99942.88
2023-04-02T21:28:44.920Z,99959.63
2023-04-02T21:31:14.644Z,99957.22
2023-04-02T21:33:45.277Z,99957.44
2023-04-02T21:36:14.997Z,99952.16
2023-04-02T21:38:44.411Z,99947.06
2023-04-02T21:41:16.562Z,99944.72
2023-04-02T21:43:46.049Z,99952.63
2023-04-02T21:46:14.308Z,99957.03
2023-04-02T21:48:43.335Z,99949.75
2023-04-02T21:51:13.900Z,99963.31
2023-04-02T21:53:43.270Z,99961.38
2023-04-02T21:56:16.593Z,99961.56
2023-04-02T21:58:45.464Z,99971.66
2023-04-02T22:01:26.135Z,99966.59
2023-04-02T22:03:55.769Z,99967.31
2023-04-02T22:06:25.834Z,99970.19
2023-04-02T22:08:56.309Z,99961.44
2023-04-02T22:11:28.122Z,99967.03
2023-04-02T22:13:56.697Z,99960.75
2023-04-02T22:16:26.464Z,99974.56
2023-04-02T22:18:58.753Z,99968.06
2023-04-02T22:21:27.121Z,99969.69
2023-04-02T22:23:55.443Z,99963.91
2023-04-02T22:26:25.798Z,99967.25
2023-04-02T22:28:53.733Z,99985.06
2023-04-02T22:31:24.038Z,99982.69
2023-04-02T22:33:53.087Z,99988.41
2023-04-02T22:36:22.437Z,99983.78
2023-04-02T22:38:51.021Z,99985.81
2023-04-02T22:41:21.711Z,99955.91
2023-04-02T22:43:51.259Z,99974.72
2023-04-02T22:46:21.367Z,99994.25
2023-04-02T22:48:50.922Z,100000.13
2023-04-02T22:51:21.955Z,99982.88
2023-04-02T22:53:51.239Z,99981.41
2023-04-02T22:56:22.073Z,99987.59
2023-04-02T22:58:51.749Z,99981.38
2023-04-02T23:01:22.717Z,99990.81
2023-04-02T23:03:51.254Z,99986.78
2023-04-02T23:06:20.014Z,99954.22
2023-04-02T23:08:48.296Z,99974.06
2023-04-02T23:11:18.314Z,99984.53
2023-04-02T23:13:49.092Z,99986.84
2023-04-02T23:16:19.780Z,99992.22
2023-04-02T23:18:49.611Z,99986.00
2023-04-02T23:21:19.371Z,99988.78
2023-04-02T23:23:48.433Z,99992.09
2023-04-02T23:26:18.158Z,99976.31
2023-04-02T23:28:46.586Z,99974.16
2023-04-02T23:31:16.838Z,99971.03
2023-04-02T23:33:46.302Z,99970.69
2023-04-02T23:36:17.690Z,99973.63
2023-04-02T23:38:45.777Z,99970.84
2023-04-02T23:41:15.966Z,99946.28
2023-04-02T23:43:44.534Z,99957.16
2023-04-02T23:46:12.561Z,99957.44
2023-04-02T23:48:41.322Z,99968.28
2023-04-02T23:51:10.616Z,99971.41
2023-04-02T23:53:38.710Z,99975.19
2023-04-02T23:56:07.354Z,99971.13
2023-04-02T23:58:35.556Z,99948.47
